sensor_id;sensor_type;location;lat;lon;timestamp;P1;durP1;ratioP1;P2;durP2;ratioP2
12181;SDS011;6154;51.550;12.138;2023-02-28T00:01:25;1.65;;;1.25;;
12181;SDS011;6154;51.550;12.138;2023-02-28T00:03:55;3.37;;;1.50;;
12181;SDS011;6154;51.550;12.138;2023-02-28T00:06:23;2.85;;;1.60;;
12181;SDS011;6154;51.550;12.138;2023-02-28T00:08:53;2.25;;;1.30;;
12181;SDS011;6154;51.550;12.138;2023-02-28T00:11:21;2.42;;;1.67;;
12181;SDS011;6154;51.550;12.138;2023-02-28T00:13:49;2.70;;;1.90;;
12181;SDS011;6154;51.550;12.138;2023-02-28T00:16:18;1.25;;;1.12;;
12181;SDS011;6154;51.550;12.138;2023-02-28T00:18:48;2.15;;;1.50;;
12181;SDS011;6154;51.550;12.138;2023-02-28T00:21:17;2.45;;;1.40;;
12181;SDS011;6154;51.550;12.138;2023-02-28T00:23:46;1.73;;;1.45;;
12181;SDS011;6154;51.550;12.138;2023-02-28T00:26:15;3.12;;;1.27;;
12181;SDS011;6154;51.550;12.138;2023-02-28T00:28:48;2.75;;;1.77;;
12181;SDS011;6154;51.550;12.138;2023-02-28T00:31:19;1.65;;;1.40;;
12181;SDS011;6154;51.550;12.138;2023-02-28T00:33:47;2.55;;;1.42;;
12181;SDS011;6154;51.550;12.138;2023-02-28T00:36:16;3.10;;;1.62;;
12181;SDS011;6154;51.550;12.138;2023-02-28T00:38:44;1.08;;;1.00;;
12181;SDS011;6154;51.550;12.138;2023-02-28T00:41:12;1.23;;;1.00;;
12181;SDS011;6154;51.550;12.138;2023-02-28T00:43:41;1.17;;;0.90;;
12181;SDS011;6154;51.550;12.138;2023-02-28T00:46:10;3.03;;;1.08;;
12181;SDS011;6154;51.550;12.138;2023-02-28T00:48:38;2.47;;;1.12;;
12181;SDS011;6154;51.550;12.138;2023-02-28T00:51:06;1.45;;;0.90;;
12181;SDS011;6154;51.550;12.138;2023-02-28T00:53:34;5.60;;;1.37;;
12181;SDS011;6154;51.550;12.138;2023-02-28T00:56:03;1.45;;;1.10;;
12181;SDS011;6154;51.550;12.138;2023-02-28T00:58:31;2.40;;;1.25;;
12181;SDS011;6154;51.550;12.138;2023-02-28T01:01:01;1.67;;;1.08;;
12181;SDS011;6154;51.550;12.138;2023-02-28T01:03:30;2.30;;;0.95;;
12181;SDS011;6154;51.550;12.138;2023-02-28T01:05:58;9.63;;;1.33;;
12181;SDS011;6154;51.550;12.138;2023-02-28T01:08:28;2.33;;;0.90;;
12181;SDS011;6154;51.550;12.138;2023-02-28T01:10:56;4.55;;;1.30;;
12181;SDS011;6154;51.550;12.138;2023-02-28T01:13:25;1.73;;;0.95;;
12181;SDS011;6154;51.550;12.138;2023-02-28T01:15:57;1.25;;;0.90;;
12181;SDS011;6154;51.550;12.138;2023-02-28T01:18:27;1.15;;;0.80;;
12181;SDS011;6154;51.550;12.138;2023-02-28T01:20:56;1.37;;;1.15;;
12181;SDS011;6154;51.550;12.138;2023-02-28T01:23:25;0.82;;;0.70;;
12181;SDS011;6154;51.550;12.138;2023-02-28T01:25:53;0.95;;;0.80;;
12181;SDS011;6154;51.550;12.138;2023-02-28T01:28:21;1.55;;;0.93;;
12181;SDS011;6154;51.550;12.138;2023-02-28T01:30:49;0.50;;;0.47;;
12181;SDS011;6154;51.550;12.138;2023-02-28T01:33:18;1.75;;;1.00;;
12181;SDS011;6154;51.550;12.138;2023-02-28T01:35:48;3.78;;;0.90;;
12181;SDS011;6154;51.550;12.138;2023-02-28T01:38:16;1.50;;;0.90;;
12181;SDS011;6154;51.550;12.138;2023-02-28T01:40:49;1.60;;;0.95;;
12181;SDS011;6154;51.550;12.138;2023-02-28T01:43:20;1.58;;;1.00;;
12181;SDS011;6154;51.550;12.138;2023-02-28T01:45:50;1.17;;;0.88;;
12181;SDS011;6154;51.550;12.138;2023-02-28T01:48:19;1.35;;;0.75;;
12181;SDS011;6154;51.550;12.138;2023-02-28T01:50:52;2.35;;;1.17;;
12181;SDS011;6154;51.550;12.138;2023-02-28T01:53:24;1.65;;;0.80;;
12181;SDS011;6154;51.550;12.138;2023-02-28T01:56:00;0.80;;;0.80;;
12181;SDS011;6154;51.550;12.138;2023-02-28T01:58:31;1.73;;;1.10;;
12181;SDS011;6154;51.550;12.138;2023-02-28T02:01:00;2.12;;;0.70;;
12181;SDS011;6154;51.550;12.138;2023-02-28T02:03:29;1.15;;;0.80;;
12181;SDS011;6154;51.550;12.138;2023-02-28T02:05:59;1.02;;;0.60;;
12181;SDS011;6154;51.550;12.138;2023-02-28T02:08:30;1.27;;;0.82;;
12181;SDS011;6154;51.550;12.138;2023-02-28T02:10:59;4.57;;;1.05;;
12181;SDS011;6154;51.550;12.138;2023-02-28T02:13:42;1.40;;;0.85;;
12181;SDS011;6154;51.550;12.138;2023-02-28T02:16:34;1.02;;;0.75;;
12181;SDS011;6154;51.550;12.138;2023-02-28T02:19:15;2.17;;;1.15;;
12181;SDS011;6154;51.550;12.138;2023-02-28T02:22:13;1.25;;;0.68;;
12181;SDS011;6154;51.550;12.138;2023-02-28T02:25:09;1.50;;;0.73;;
12181;SDS011;6154;51.550;12.138;2023-02-28T02:27:47;1.73;;;0.75;;
12181;SDS011;6154;51.550;12.138;2023-02-28T02:33:39;1.33;;;0.93;;
12181;SDS011;6154;51.550;12.138;2023-02-28T02:36:33;2.55;;;0.98;;
12181;SDS011;6154;51.550;12.138;2023-02-28T02:39:06;1.23;;;0.88;;
12181;SDS011;6154;51.550;12.138;2023-02-28T02:41:40;0.88;;;0.70;;
12181;SDS011;6154;51.550;12.138;2023-02-28T02:44:17;1.00;;;0.80;;
12181;SDS011;6154;51.550;12.138;2023-02-28T02:46:50;0.68;;;0.60;;
12181;SDS011;6154;51.550;12.138;2023-02-28T02:49:31;1.17;;;0.65;;
12181;SDS011;6154;51.550;12.138;2023-02-28T02:52:03;1.58;;;0.80;;
12181;SDS011;6154;51.550;12.138;2023-02-28T02:54:36;0.90;;;0.80;;
12181;SDS011;6154;51.550;12.138;2023-02-28T02:57:08;1.45;;;0.88;;
12181;SDS011;6154;51.550;12.138;2023-02-28T02:59:41;1.00;;;0.90;;
12181;SDS011;6154;51.550;12.138;2023-02-28T03:02:11;2.47;;;1.12;;
12181;SDS011;6154;51.550;12.138;2023-02-28T03:04:43;1.60;;;1.00;;
12181;SDS011;6154;51.550;12.138;2023-02-28T03:07:16;1.45;;;0.80;;
12181;SDS011;6154;51.550;12.138;2023-02-28T03:09:50;2.12;;;0.93;;
12181;SDS011;6154;51.550;12.138;2023-02-28T03:12:19;2.45;;;1.37;;
12181;SDS011;6154;51.550;12.138;2023-02-28T03:14:55;1.08;;;0.80;;
12181;SDS011;6154;51.550;12.138;2023-02-28T03:17:45;1.85;;;0.93;;
12181;SDS011;6154;51.550;12.138;2023-02-28T03:20:26;1.23;;;0.77;;
12181;SDS011;6154;51.550;12.138;2023-02-28T03:23:01;1.87;;;1.40;;
12181;SDS011;6154;51.550;12.138;2023-02-28T03:25:37;1.90;;;0.90;;
12181;SDS011;6154;51.550;12.138;2023-02-28T03:28:11;1.73;;;1.00;;
12181;SDS011;6154;51.550;12.138;2023-02-28T03:30:46;1.80;;;1.25;;
12181;SDS011;6154;51.550;12.138;2023-02-28T03:33:21;1.23;;;1.08;;
12181;SDS011;6154;51.550;12.138;2023-02-28T03:35:53;2.05;;;1.25;;
12181;SDS011;6154;51.550;12.138;2023-02-28T03:38:27;2.58;;;1.10;;
12181;SDS011;6154;51.550;12.138;2023-02-28T03:41:00;4.10;;;1.10;;
12181;SDS011;6154;51.550;12.138;2023-02-28T03:43:33;3.55;;;0.93;;
12181;SDS011;6154;51.550;12.138;2023-02-28T03:46:07;1.67;;;1.10;;
12181;SDS011;6154;51.550;12.138;2023-02-28T03:48:39;3.30;;;1.10;;
12181;SDS011;6154;51.550;12.138;2023-02-28T03:51:14;1.60;;;0.90;;
12181;SDS011;6154;51.550;12.138;2023-02-28T03:53:45;1.10;;;0.60;;
12181;SDS011;6154;51.550;12.138;2023-02-28T03:56:19;2.00;;;0.98;;
12181;SDS011;6154;51.550;12.138;2023-02-28T03:58:51;1.80;;;0.85;;
12181;SDS011;6154;51.550;12.138;2023-02-28T04:01:24;1.60;;;0.93;;
12181;SDS011;6154;51.550;12.138;2023-02-28T04:03:58;0.90;;;0.85;;
12181;SDS011;6154;51.550;12.138;2023-02-28T04:06:29;4.00;;;1.52;;
12181;SDS011;6154;51.550;12.138;2023-02-28T04:08:59;1.67;;;1.15;;
12181;SDS011;6154;51.550;12.138;2023-02-28T04:11:29;1.10;;;0.90;;
12181;SDS011;6154;51.550;12.138;2023-02-28T04:14:02;2.58;;;0.75;;
12181;SDS011;6154;51.550;12.138;2023-02-28T04:16:31;2.35;;;1.30;;
12181;SDS011;6154;51.550;12.138;2023-02-28T04:19:02;1.02;;;0.88;;
12181;SDS011;6154;51.550;12.138;2023-02-28T04:21:33;2.33;;;1.00;;
12181;SDS011;6154;51.550;12.138;2023-02-28T04:24:04;2.42;;;1.25;;
12181;SDS011;6154;51.550;12.138;2023-02-28T04:26:33;1.35;;;0.82;;
12181;SDS011;6154;51.550;12.138;2023-02-28T04:29:03;2.80;;;0.80;;
12181;SDS011;6154;51.550;12.138;2023-02-28T04:31:33;1.30;;;0.95;;
12181;SDS011;6154;51.550;12.138;2023-02-28T04:34:01;1.90;;;1.17;;
12181;SDS011;6154;51.550;12.138;2023-02-28T04:36:29;1.20;;;1.10;;
12181;SDS011;6154;51.550;12.138;2023-02-28T04:38:59;1.37;;;1.10;;
12181;SDS011;6154;51.550;12.138;2023-02-28T04:41:27;2.05;;;1.20;;
12181;SDS011;6154;51.550;12.138;2023-02-28T04:43:58;2.08;;;1.40;;
12181;SDS011;6154;51.550;12.138;2023-02-28T04:46:27;1.52;;;0.77;;
12181;SDS011;6154;51.550;12.138;2023-02-28T04:48:55;0.93;;;0.90;;
12181;SDS011;6154;51.550;12.138;2023-02-28T04:51:23;3.85;;;0.93;;
12181;SDS011;6154;51.550;12.138;2023-02-28T04:53:51;1.05;;;0.70;;
12181;SDS011;6154;51.550;12.138;2023-02-28T04:56:21;2.15;;;1.15;;
12181;SDS011;6154;51.550;12.138;2023-02-28T04:58:49;2.10;;;1.42;;
12181;SDS011;6154;51.550;12.138;2023-02-28T05:01:21;2.87;;;1.25;;
12181;SDS011;6154;51.550;12.138;2023-02-28T05:03:51;1.83;;;1.08;;
12181;SDS011;6154;51.550;12.138;2023-02-28T05:06:20;2.35;;;1.37;;
12181;SDS011;6154;51.550;12.138;2023-02-28T05:08:50;2.03;;;1.25;;
12181;SDS011;6154;51.550;12.138;2023-02-28T05:11:21;3.60;;;1.23;;
12181;SDS011;6154;51.550;12.138;2023-02-28T05:13:51;2.33;;;1.17;;
12181;SDS011;6154;51.550;12.138;2023-02-28T05:16:20;1.58;;;0.85;;
12181;SDS011;6154;51.550;12.138;2023-02-28T05:18:48;3.03;;;1.80;;
12181;SDS011;6154;51.550;12.138;2023-02-28T05:21:21;2.05;;;1.40;;
12181;SDS011;6154;51.550;12.138;2023-02-28T05:23:56;2.15;;;1.27;;
12181;SDS011;6154;51.550;12.138;2023-02-28T05:26:27;1.40;;;1.00;;
12181;SDS011;6154;51.550;12.138;2023-02-28T05:28:56;2.30;;;1.33;;
12181;SDS011;6154;51.550;12.138;2023-02-28T05:31:24;1.48;;;1.10;;
12181;SDS011;6154;51.550;12.138;2023-02-28T05:33:54;2.78;;;1.37;;
12181;SDS011;6154;51.550;12.138;2023-02-28T05:36:23;4.05;;;1.62;;
12181;SDS011;6154;51.550;12.138;2023-02-28T05:38:51;1.67;;;1.25;;
12181;SDS011;6154;51.550;12.138;2023-02-28T05:41:20;2.10;;;0.93;;
12181;SDS011;6154;51.550;12.138;2023-02-28T05:43:49;6.35;;;1.50;;
12181;SDS011;6154;51.550;12.138;2023-02-28T05:46:17;2.37;;;1.58;;
12181;SDS011;6154;51.550;12.138;2023-02-28T05:48:46;3.80;;;1.33;;
12181;SDS011;6154;51.550;12.138;2023-02-28T05:51:16;3.37;;;1.30;;
12181;SDS011;6154;51.550;12.138;2023-02-28T05:53:44;2.30;;;1.40;;
12181;SDS011;6154;51.550;12.138;2023-02-28T05:56:14;1.52;;;1.20;;
12181;SDS011;6154;51.550;12.138;2023-02-28T05:58:42;1.25;;;0.82;;
12181;SDS011;6154;51.550;12.138;2023-02-28T06:01:21;1.55;;;1.27;;
12181;SDS011;6154;51.550;12.138;2023-02-28T06:03:52;2.65;;;1.02;;
12181;SDS011;6154;51.550;12.138;2023-02-28T06:06:20;2.67;;;1.40;;
12181;SDS011;6154;51.550;12.138;2023-02-28T06:08:48;1.17;;;0.98;;
12181;SDS011;6154;51.550;12.138;2023-02-28T06:11:16;1.12;;;1.02;;
12181;SDS011;6154;51.550;12.138;2023-02-28T06:13:46;1.45;;;1.20;;
12181;SDS011;6154;51.550;12.138;2023-02-28T06:16:14;1.77;;;1.20;;
12181;SDS011;6154;51.550;12.138;2023-02-28T06:18:44;1.77;;;1.05;;
12181;SDS011;6154;51.550;12.138;2023-02-28T06:21:12;2.87;;;1.60;;
12181;SDS011;6154;51.550;12.138;2023-02-28T06:23:40;3.33;;;1.62;;
12181;SDS011;6154;51.550;12.138;2023-02-28T06:26:09;1.20;;;1.02;;
12181;SDS011;6154;51.550;12.138;2023-02-28T06:28:37;2.87;;;1.20;;
12181;SDS011;6154;51.550;12.138;2023-02-28T06:31:06;4.03;;;1.80;;
12181;SDS011;6154;51.550;12.138;2023-02-28T06:33:36;1.40;;;1.15;;
12181;SDS011;6154;51.550;12.138;2023-02-28T06:36:07;2.03;;;1.62;;
12181;SDS011;6154;51.550;12.138;2023-02-28T06:38:36;1.58;;;1.15;;
12181;SDS011;6154;51.550;12.138;2023-02-28T06:41:05;1.83;;;1.00;;
12181;SDS011;6154;51.550;12.138;2023-02-28T06:43:34;3.47;;;1.70;;
12181;SDS011;6154;51.550;12.138;2023-02-28T06:46:05;1.95;;;1.35;;
12181;SDS011;6154;51.550;12.138;2023-02-28T06:48:35;3.67;;;1.45;;
12181;SDS011;6154;51.550;12.138;2023-02-28T06:51:04;1.48;;;1.15;;
12181;SDS011;6154;51.550;12.138;2023-02-28T06:53:35;2.70;;;1.00;;
12181;SDS011;6154;51.550;12.138;2023-02-28T06:56:03;2.55;;;1.87;;
12181;SDS011;6154;51.550;12.138;2023-02-28T06:58:33;2.00;;;0.95;;
12181;SDS011;6154;51.550;12.138;2023-02-28T07:01:02;2.03;;;1.33;;
12181;SDS011;6154;51.550;12.138;2023-02-28T07:03:31;4.07;;;1.48;;
12181;SDS011;6154;51.550;12.138;2023-02-28T07:06:00;2.08;;;1.17;;
12181;SDS011;6154;51.550;12.138;2023-02-28T07:08:29;3.80;;;1.65;;
12181;SDS011;6154;51.550;12.138;2023-02-28T07:10:59;2.70;;;1.45;;
12181;SDS011;6154;51.550;12.138;2023-02-28T07:13:27;1.87;;;1.40;;
12181;SDS011;6154;51.550;12.138;2023-02-28T07:15:56;2.08;;;1.52;;
12181;SDS011;6154;51.550;12.138;2023-02-28T07:18:26;2.35;;;1.40;;
12181;SDS011;6154;51.550;12.138;2023-02-28T07:20:54;2.00;;;1.37;;
12181;SDS011;6154;51.550;12.138;2023-02-28T07:23:23;2.50;;;2.00;;
12181;SDS011;6154;51.550;12.138;2023-02-28T07:25:51;1.05;;;0.95;;
12181;SDS011;6154;51.550;12.138;2023-02-28T07:28:21;2.20;;;1.40;;
12181;SDS011;6154;51.550;12.138;2023-02-28T07:30:49;4.75;;;2.15;;
12181;SDS011;6154;51.550;12.138;2023-02-28T07:33:17;3.08;;;1.42;;
12181;SDS011;6154;51.550;12.138;2023-02-28T07:35:45;3.85;;;1.52;;
12181;SDS011;6154;51.550;12.138;2023-02-28T07:38:13;2.12;;;1.75;;
12181;SDS011;6154;51.550;12.138;2023-02-28T07:40:42;1.30;;;1.20;;
12181;SDS011;6154;51.550;12.138;2023-02-28T07:43:10;2.70;;;1.50;;
12181;SDS011;6154;51.550;12.138;2023-02-28T07:45:40;4.18;;;1.73;;
12181;SDS011;6154;51.550;12.138;2023-02-28T07:48:08;1.35;;;0.80;;
12181;SDS011;6154;51.550;12.138;2023-02-28T07:50:36;1.77;;;1.30;;
12181;SDS011;6154;51.550;12.138;2023-02-28T07:53:05;1.25;;;0.98;;
12181;SDS011;6154;51.550;12.138;2023-02-28T07:55:33;3.55;;;1.92;;
12181;SDS011;6154;51.550;12.138;2023-02-28T07:58:01;1.42;;;1.33;;
12181;SDS011;6154;51.550;12.138;2023-02-28T08:00:30;7.57;;;3.80;;
12181;SDS011;6154;51.550;12.138;2023-02-28T08:03:00;2.03;;;1.83;;
12181;SDS011;6154;51.550;12.138;2023-02-28T08:05:28;2.42;;;1.40;;
12181;SDS011;6154;51.550;12.138;2023-02-28T08:07:57;4.07;;;2.00;;
12181;SDS011;6154;51.550;12.138;2023-02-28T08:10:26;3.85;;;1.67;;
12181;SDS011;6154;51.550;12.138;2023-02-28T08:12:54;2.22;;;1.58;;
12181;SDS011;6154;51.550;12.138;2023-02-28T08:15:22;4.05;;;1.87;;
12181;SDS011;6154;51.550;12.138;2023-02-28T08:17:50;3.80;;;1.95;;
12181;SDS011;6154;51.550;12.138;2023-02-28T08:20:21;4.30;;;2.30;;
12181;SDS011;6154;51.550;12.138;2023-02-28T08:22:50;3.87;;;1.92;;
12181;SDS011;6154;51.550;12.138;2023-02-28T08:25:18;2.70;;;1.65;;
12181;SDS011;6154;51.550;12.138;2023-02-28T08:27:46;2.53;;;1.90;;
12181;SDS011;6154;51.550;12.138;2023-02-28T08:30:15;2.87;;;2.00;;
12181;SDS011;6154;51.550;12.138;2023-02-28T08:32:44;3.22;;;1.87;;
12181;SDS011;6154;51.550;12.138;2023-02-28T08:35:12;4.10;;;1.83;;
12181;SDS011;6154;51.550;12.138;2023-02-28T08:37:42;3.47;;;1.83;;
12181;SDS011;6154;51.550;12.138;2023-02-28T08:40:10;3.15;;;1.58;;
12181;SDS011;6154;51.550;12.138;2023-02-28T08:42:45;3.05;;;2.25;;
12181;SDS011;6154;51.550;12.138;2023-02-28T08:45:13;5.43;;;2.28;;
12181;SDS011;6154;51.550;12.138;2023-02-28T08:47:42;2.78;;;2.10;;
12181;SDS011;6154;51.550;12.138;2023-02-28T08:50:10;3.50;;;2.03;;
12181;SDS011;6154;51.550;12.138;2023-02-28T08:52:43;1.98;;;1.65;;
12181;SDS011;6154;51.550;12.138;2023-02-28T08:55:12;2.45;;;2.10;;
12181;SDS011;6154;51.550;12.138;2023-02-28T08:57:40;3.72;;;1.92;;
12181;SDS011;6154;51.550;12.138;2023-02-28T09:00:09;3.47;;;1.80;;
12181;SDS011;6154;51.550;12.138;2023-02-28T09:02:40;2.90;;;2.00;;
12181;SDS011;6154;51.550;12.138;2023-02-28T09:05:10;4.30;;;1.92;;
12181;SDS011;6154;51.550;12.138;2023-02-28T09:07:38;2.80;;;2.50;;
12181;SDS011;6154;51.550;12.138;2023-02-28T09:10:08;5.03;;;2.67;;
12181;SDS011;6154;51.550;12.138;2023-02-28T09:12:37;2.28;;;1.87;;
12181;SDS011;6154;51.550;12.138;2023-02-28T09:15:06;4.10;;;2.03;;
12181;SDS011;6154;51.550;12.138;2023-02-28T09:17:35;3.37;;;1.92;;
12181;SDS011;6154;51.550;12.138;2023-02-28T09:20:07;3.08;;;1.62;;
12181;SDS011;6154;51.550;12.138;2023-02-28T09:22:36;2.65;;;1.70;;
12181;SDS011;6154;51.550;12.138;2023-02-28T09:25:04;3.12;;;1.75;;
12181;SDS011;6154;51.550;12.138;2023-02-28T09:27:34;1.65;;;1.30;;
12181;SDS011;6154;51.550;12.138;2023-02-28T09:30:04;1.98;;;1.50;;
12181;SDS011;6154;51.550;12.138;2023-02-28T09:32:33;2.25;;;1.62;;
12181;SDS011;6154;51.550;12.138;2023-02-28T09:35:01;3.17;;;1.40;;
12181;SDS011;6154;51.550;12.138;2023-02-28T09:37:29;2.10;;;0.80;;
12181;SDS011;6154;51.550;12.138;2023-02-28T09:39:57;2.42;;;1.70;;
12181;SDS011;6154;51.550;12.138;2023-02-28T09:42:28;3.05;;;1.67;;
12181;SDS011;6154;51.550;12.138;2023-02-28T09:45:00;2.30;;;1.45;;
12181;SDS011;6154;51.550;12.138;2023-02-28T09:47:34;1.40;;;1.15;;
12181;SDS011;6154;51.550;12.138;2023-02-28T09:50:11;2.78;;;1.50;;
12181;SDS011;6154;51.550;12.138;2023-02-28T09:53:03;1.05;;;0.98;;
12181;SDS011;6154;51.550;12.138;2023-02-28T09:56:01;1.95;;;1.30;;
12181;SDS011;6154;51.550;12.138;2023-02-28T09:58:36;1.92;;;1.25;;
12181;SDS011;6154;51.550;12.138;2023-02-28T10:01:12;2.92;;;1.67;;
12181;SDS011;6154;51.550;12.138;2023-02-28T10:03:50;2.72;;;1.75;;
12181;SDS011;6154;51.550;12.138;2023-02-28T10:06:26;2.85;;;1.80;;
12181;SDS011;6154;51.550;12.138;2023-02-28T10:08:58;2.65;;;1.70;;
12181;SDS011;6154;51.550;12.138;2023-02-28T10:11:29;3.17;;;1.80;;
12181;SDS011;6154;51.550;12.138;2023-02-28T10:14:01;5.37;;;2.03;;
12181;SDS011;6154;51.550;12.138;2023-02-28T10:16:34;3.05;;;1.73;;
12181;SDS011;6154;51.550;12.138;2023-02-28T10:19:05;2.70;;;1.85;;
12181;SDS011;6154;51.550;12.138;2023-02-28T10:21:41;3.30;;;2.00;;
12181;SDS011;6154;51.550;12.138;2023-02-28T10:24:16;4.82;;;2.60;;
12181;SDS011;6154;51.550;12.138;2023-02-28T10:26:50;6.03;;;2.10;;
12181;SDS011;6154;51.550;12.138;2023-02-28T10:29:21;3.72;;;1.90;;
12181;SDS011;6154;51.550;12.138;2023-02-28T10:31:50;2.35;;;1.52;;
12181;SDS011;6154;51.550;12.138;2023-02-28T10:34:19;3.28;;;1.90;;
12181;SDS011;6154;51.550;12.138;2023-02-28T10:36:47;3.03;;;2.10;;
12181;SDS011;6154;51.550;12.138;2023-02-28T10:42:05;2.95;;;2.03;;
12181;SDS011;6154;51.550;12.138;2023-02-28T10:44:47;3.75;;;1.70;;
12181;SDS011;6154;51.550;12.138;2023-02-28T10:47:17;3.03;;;1.95;;
12181;SDS011;6154;51.550;12.138;2023-02-28T10:49:47;2.95;;;1.95;;
12181;SDS011;6154;51.550;12.138;2023-02-28T10:52:31;2.53;;;2.00;;
12181;SDS011;6154;51.550;12.138;2023-02-28T10:55:13;2.65;;;2.08;;
12181;SDS011;6154;51.550;12.138;2023-02-28T10:57:47;4.18;;;2.50;;
12181;SDS011;6154;51.550;12.138;2023-02-28T11:00:17;3.10;;;2.20;;
12181;SDS011;6154;51.550;12.138;2023-02-28T11:02:49;3.53;;;2.30;;
12181;SDS011;6154;51.550;12.138;2023-02-28T11:05:25;2.42;;;2.15;;
12181;SDS011;6154;51.550;12.138;2023-02-28T11:07:56;2.28;;;2.05;;
12181;SDS011;6154;51.550;12.138;2023-02-28T11:10:31;2.85;;;2.40;;
12181;SDS011;6154;51.550;12.138;2023-02-28T11:13:01;3.90;;;2.40;;
12181;SDS011;6154;51.550;12.138;2023-02-28T11:15:31;3.20;;;2.15;;
12181;SDS011;6154;51.550;12.138;2023-02-28T11:18:02;4.75;;;2.50;;
12181;SDS011;6154;51.550;12.138;2023-02-28T11:20:47;3.37;;;2.35;;
12181;SDS011;6154;51.550;12.138;2023-02-28T11:23:18;2.40;;;2.20;;
12181;SDS011;6154;51.550;12.138;2023-02-28T11:25:48;2.35;;;2.00;;
12181;SDS011;6154;51.550;12.138;2023-02-28T11:28:24;3.05;;;2.20;;
12181;SDS011;6154;51.550;12.138;2023-02-28T11:30:59;3.10;;;2.20;;
12181;SDS011;6154;51.550;12.138;2023-02-28T11:33:31;2.67;;;2.10;;
12181;SDS011;6154;51.550;12.138;2023-02-28T11:36:01;4.47;;;2.37;;
12181;SDS011;6154;51.550;12.138;2023-02-28T11:38:32;3.55;;;2.22;;
12181;SDS011;6154;51.550;12.138;2023-02-28T11:41:05;3.70;;;2.20;;
12181;SDS011;6154;51.550;12.138;2023-02-28T11:43:49;3.87;;;2.20;;
12181;SDS011;6154;51.550;12.138;2023-02-28T11:46:30;3.28;;;2.37;;
12181;SDS011;6154;51.550;12.138;2023-02-28T11:49:10;4.45;;;2.28;;
12181;SDS011;6154;51.550;12.138;2023-02-28T11:51:50;4.20;;;2.83;;
12181;SDS011;6154;51.550;12.138;2023-02-28T11:54:28;2.70;;;1.98;;
12181;SDS011;6154;51.550;12.138;2023-02-28T11:57:21;3.03;;;2.00;;
12181;SDS011;6154;51.550;12.138;2023-02-28T12:00:06;4.18;;;2.22;;
12181;SDS011;6154;51.550;12.138;2023-02-28T12:02:51;5.75;;;2.45;;
12181;SDS011;6154;51.550;12.138;2023-02-28T12:05:27;4.40;;;2.28;;
12181;SDS011;6154;51.550;12.138;2023-02-28T12:08:07;4.87;;;2.55;;
12181;SDS011;6154;51.550;12.138;2023-02-28T12:10:52;2.62;;;2.25;;
12181;SDS011;6154;51.550;12.138;2023-02-28T12:13:34;3.65;;;2.30;;
12181;SDS011;6154;51.550;12.138;2023-02-28T12:16:20;4.10;;;2.53;;
12181;SDS011;6154;51.550;12.138;2023-02-28T12:19:03;3.53;;;2.45;;
12181;SDS011;6154;51.550;12.138;2023-02-28T12:21:44;2.17;;;1.95;;
12181;SDS011;6154;51.550;12.138;2023-02-28T12:24:38;4.22;;;2.67;;
12181;SDS011;6154;51.550;12.138;2023-02-28T12:27:19;4.03;;;2.33;;
12181;SDS011;6154;51.550;12.138;2023-02-28T12:29:54;4.20;;;2.70;;
12181;SDS011;6154;51.550;12.138;2023-02-28T12:32:26;3.67;;;2.30;;
12181;SDS011;6154;51.550;12.138;2023-02-28T12:35:01;3.80;;;2.65;;
12181;SDS011;6154;51.550;12.138;2023-02-28T12:37:35;3.90;;;2.03;;
12181;SDS011;6154;51.550;12.138;2023-02-28T12:40:09;4.62;;;2.47;;
12181;SDS011;6154;51.550;12.138;2023-02-28T12:42:41;2.90;;;2.25;;
12181;SDS011;6154;51.550;12.138;2023-02-28T12:45:15;3.15;;;2.37;;
12181;SDS011;6154;51.550;12.138;2023-02-28T12:47:48;2.80;;;2.35;;
12181;SDS011;6154;51.550;12.138;2023-02-28T12:50:19;3.17;;;2.22;;
12181;SDS011;6154;51.550;12.138;2023-02-28T12:52:51;3.12;;;2.50;;
12181;SDS011;6154;51.550;12.138;2023-02-28T12:55:27;3.87;;;2.53;;
12181;SDS011;6154;51.550;12.138;2023-02-28T12:58:02;3.80;;;2.40;;
12181;SDS011;6154;51.550;12.138;2023-02-28T13:00:49;3.53;;;2.53;;
12181;SDS011;6154;51.550;12.138;2023-02-28T13:06:42;3.25;;;2.60;;
12181;SDS011;6154;51.550;12.138;2023-02-28T13:09:27;4.47;;;2.87;;
12181;SDS011;6154;51.550;12.138;2023-02-28T13:11:56;3.40;;;2.78;;
12181;SDS011;6154;51.550;12.138;2023-02-28T13:14:26;2.80;;;2.47;;
12181;SDS011;6154;51.550;12.138;2023-02-28T13:16:59;4.10;;;2.92;;
12181;SDS011;6154;51.550;12.138;2023-02-28T13:19:30;6.20;;;3.10;;
12181;SDS011;6154;51.550;12.138;2023-02-28T13:22:00;3.30;;;2.95;;
12181;SDS011;6154;51.550;12.138;2023-02-28T13:24:42;3.70;;;2.55;;
12181;SDS011;6154;51.550;12.138;2023-02-28T13:27:22;4.10;;;2.67;;
12181;SDS011;6154;51.550;12.138;2023-02-28T13:29:59;4.80;;;2.45;;
12181;SDS011;6154;51.550;12.138;2023-02-28T13:32:30;4.57;;;2.47;;
12181;SDS011;6154;51.550;12.138;2023-02-28T13:35:13;3.78;;;2.78;;
12181;SDS011;6154;51.550;12.138;2023-02-28T13:37:43;5.50;;;2.45;;
12181;SDS011;6154;51.550;12.138;2023-02-28T13:43:07;2.95;;;2.12;;
12181;SDS011;6154;51.550;12.138;2023-02-28T13:45:36;4.05;;;2.53;;
12181;SDS011;6154;51.550;12.138;2023-02-28T13:48:16;3.45;;;2.42;;
12181;SDS011;6154;51.550;12.138;2023-02-28T13:50:46;4.62;;;2.10;;
12181;SDS011;6154;51.550;12.138;2023-02-28T13:53:30;3.25;;;2.20;;
12181;SDS011;6154;51.550;12.138;2023-02-28T13:56:10;4.32;;;2.30;;
12181;SDS011;6154;51.550;12.138;2023-02-28T13:58:53;4.00;;;2.15;;
12181;SDS011;6154;51.550;12.138;2023-02-28T14:01:28;4.00;;;2.42;;
12181;SDS011;6154;51.550;12.138;2023-02-28T14:07:15;2.80;;;2.05;;
12181;SDS011;6154;51.550;12.138;2023-02-28T14:09:57;2.35;;;2.15;;
12181;SDS011;6154;51.550;12.138;2023-02-28T14:15:26;4.82;;;2.55;;
12181;SDS011;6154;51.550;12.138;2023-02-28T14:18:03;1.87;;;1.67;;
12181;SDS011;6154;51.550;12.138;2023-02-28T14:20:41;4.20;;;2.53;;
12181;SDS011;6154;51.550;12.138;2023-02-28T14:23:12;3.62;;;2.60;;
12181;SDS011;6154;51.550;12.138;2023-02-28T14:25:52;4.43;;;2.65;;
12181;SDS011;6154;51.550;12.138;2023-02-28T14:28:35;4.15;;;2.33;;
12181;SDS011;6154;51.550;12.138;2023-02-28T14:31:17;2.87;;;2.30;;
12181;SDS011;6154;51.550;12.138;2023-02-28T14:34:04;2.58;;;2.15;;
12181;SDS011;6154;51.550;12.138;2023-02-28T14:36:48;4.53;;;2.60;;
12181;SDS011;6154;51.550;12.138;2023-02-28T14:39:18;4.50;;;2.50;;
12181;SDS011;6154;51.550;12.138;2023-02-28T14:41:49;3.15;;;2.17;;
12181;SDS011;6154;51.550;12.138;2023-02-28T14:44:20;3.45;;;2.08;;
12181;SDS011;6154;51.550;12.138;2023-02-28T14:46:50;3.90;;;2.42;;
12181;SDS011;6154;51.550;12.138;2023-02-28T14:49:21;3.22;;;1.92;;
12181;SDS011;6154;51.550;12.138;2023-02-28T14:52:01;4.25;;;2.45;;
12181;SDS011;6154;51.550;12.138;2023-02-28T14:54:32;2.15;;;1.85;;
12181;SDS011;6154;51.550;12.138;2023-02-28T14:57:01;3.80;;;2.05;;
12181;SDS011;6154;51.550;12.138;2023-02-28T14:59:32;2.83;;;2.33;;
12181;SDS011;6154;51.550;12.138;2023-02-28T15:02:19;2.58;;;2.22;;
12181;SDS011;6154;51.550;12.138;2023-02-28T15:04:52;2.50;;;2.30;;
12181;SDS011;6154;51.550;12.138;2023-02-28T15:07:22;4.75;;;2.28;;
12181;SDS011;6154;51.550;12.138;2023-02-28T15:10:08;5.25;;;2.67;;
12181;SDS011;6154;51.550;12.138;2023-02-28T15:12:45;3.15;;;2.35;;
12181;SDS011;6154;51.550;12.138;2023-02-28T15:15:20;4.03;;;2.60;;
12181;SDS011;6154;51.550;12.138;2023-02-28T15:18:06;3.97;;;1.85;;
12181;SDS011;6154;51.550;12.138;2023-02-28T15:20:39;4.95;;;2.53;;
12181;SDS011;6154;51.550;12.138;2023-02-28T15:23:10;4.22;;;2.92;;
12181;SDS011;6154;51.550;12.138;2023-02-28T15:25:39;3.17;;;2.40;;
12181;SDS011;6154;51.550;12.138;2023-02-28T15:28:10;4.40;;;2.67;;
12181;SDS011;6154;51.550;12.138;2023-02-28T15:30:55;4.85;;;2.17;;
12181;SDS011;6154;51.550;12.138;2023-02-28T15:33:26;4.07;;;2.53;;
12181;SDS011;6154;51.550;12.138;2023-02-28T15:36:03;4.15;;;2.83;;
12181;SDS011;6154;51.550;12.138;2023-02-28T15:38:34;3.80;;;1.87;;